sensor_id;sensor_type;location;lat;lon;timestamp;P1;durP1;ratioP1;P2;durP2;ratioP2
47804;SDS011;33568;45.286;9.900;2023-05-29T00:01:37;28.88;;;26.02;;
47804;SDS011;33568;45.286;9.900;2023-05-29T00:04:03;29.23;;;25.75;;
47804;SDS011;33568;45.286;9.900;2023-05-29T00:06:30;28.83;;;25.75;;
47804;SDS011;33568;45.286;9.900;2023-05-29T00:08:56;26.83;;;24.15;;
47804;SDS011;33568;45.286;9.900;2023-05-29T00:11:23;34.05;;;26.17;;
47804;SDS011;33568;45.286;9.900;2023-05-29T00:13:49;28.83;;;25.40;;
47804;SDS011;33568;45.286;9.900;2023-05-29T00:16:16;28.42;;;25.73;;
47804;SDS011;33568;45.286;9.900;2023-05-29T00:18:43;28.23;;;24.85;;
47804;SDS011;33568;45.286;9.900;2023-05-29T00:21:12;29.40;;;26.40;;
47804;SDS011;33568;45.286;9.900;2023-05-29T00:23:40;27.60;;;24.75;;
47804;SDS011;33568;45.286;9.900;2023-05-29T00:26:06;28.80;;;25.83;;
47804;SDS011;33568;45.286;9.900;2023-05-29T00:28:34;30.08;;;26.92;;
47804;SDS011;33568;45.286;9.900;2023-05-29T00:31:02;29.70;;;26.63;;
47804;SDS011;33568;45.286;9.900;2023-05-29T00:33:28;30.17;;;27.02;;
47804;SDS011;33568;45.286;9.900;2023-05-29T00:35:55;28.67;;;25.83;;
47804;SDS011;33568;45.286;9.900;2023-05-29T00:38:22;31.23;;;26.35;;
47804;SDS011;33568;45.286;9.900;2023-05-29T00:40:48;31.23;;;27.35;;
47804;SDS011;33568;45.286;9.900;2023-05-29T00:43:15;30.17;;;27.30;;
47804;SDS011;33568;45.286;9.900;2023-05-29T00:45:41;30.60;;;27.45;;
47804;SDS011;33568;45.286;9.900;2023-05-29T00:48:08;31.95;;;28.58;;
47804;SDS011;33568;45.286;9.900;2023-05-29T00:50:34;31.08;;;27.98;;
47804;SDS011;33568;45.286;9.900;2023-05-29T00:53:01;30.55;;;27.45;;
47804;SDS011;33568;45.286;9.900;2023-05-29T00:55:30;33.53;;;29.67;;
47804;SDS011;33568;45.286;9.900;2023-05-29T00:57:57;32.42;;;28.98;;
47804;SDS011;33568;45.286;9.900;2023-05-29T01:00:23;33.35;;;28.70;;
47804;SDS011;33568;45.286;9.900;2023-05-29T01:02:50;30.60;;;27.27;;
47804;SDS011;33568;45.286;9.900;2023-05-29T01:05:18;31.85;;;28.65;;
47804;SDS011;33568;45.286;9.900;2023-05-29T01:07:45;33.95;;;28.73;;
47804;SDS011;33568;45.286;9.900;2023-05-29T01:10:12;33.63;;;29.85;;
47804;SDS011;33568;45.286;9.900;2023-05-29T01:29:08;34.20;;;30.17;;
47804;SDS011;33568;45.286;9.900;2023-05-29T01:31:38;34.05;;;29.33;;
47804;SDS011;33568;45.286;9.900;2023-05-29T01:34:07;36.20;;;29.70;;
47804;SDS011;33568;45.286;9.900;2023-05-29T01:36:34;34.08;;;29.60;;
47804;SDS011;33568;45.286;9.900;2023-05-29T01:39:02;32.55;;;27.63;;
47804;SDS011;33568;45.286;9.900;2023-05-29T01:41:31;34.00;;;28.52;;
47804;SDS011;33568;45.286;9.900;2023-05-29T01:44:00;29.50;;;26.35;;
47804;SDS011;33568;45.286;9.900;2023-05-29T01:46:29;31.25;;;27.65;;
47804;SDS011;33568;45.286;9.900;2023-05-29T01:48:55;32.17;;;28.88;;
47804;SDS011;33568;45.286;9.900;2023-05-29T01:51:22;32.50;;;27.75;;
47804;SDS011;33568;45.286;9.900;2023-05-29T01:53:49;34.10;;;28.73;;
47804;SDS011;33568;45.286;9.900;2023-05-29T01:56:15;32.00;;;28.13;;
47804;SDS011;33568;45.286;9.900;2023-05-29T01:58:42;32.65;;;29.13;;
47804;SDS011;33568;45.286;9.900;2023-05-29T02:01:10;31.63;;;28.25;;
47804;SDS011;33568;45.286;9.900;2023-05-29T02:03:36;30.75;;;27.75;;
47804;SDS011;33568;45.286;9.900;2023-05-29T02:06:03;31.15;;;27.85;;
47804;SDS011;33568;45.286;9.900;2023-05-29T02:08:29;32.58;;;28.95;;
47804;SDS011;33568;45.286;9.900;2023-05-29T02:10:56;32.50;;;28.98;;
47804;SDS011;33568;45.286;9.900;2023-05-29T02:13:22;34.13;;;29.10;;
47804;SDS011;33568;45.286;9.900;2023-05-29T02:15:49;33.95;;;29.70;;
47804;SDS011;33568;45.286;9.900;2023-05-29T02:18:16;31.73;;;28.33;;
47804;SDS011;33568;45.286;9.900;2023-05-29T02:20:44;32.35;;;28.95;;
47804;SDS011;33568;45.286;9.900;2023-05-29T02:23:20;32.40;;;29.23;;
47804;SDS011;33568;45.286;9.900;2023-05-29T02:25:47;31.50;;;28.35;;
47804;SDS011;33568;45.286;9.900;2023-05-29T02:28:13;33.50;;;29.00;;
47804;SDS011;33568;45.286;9.900;2023-05-29T02:30:40;31.33;;;28.45;;
47804;SDS011;33568;45.286;9.900;2023-05-29T02:33:08;31.23;;;28.05;;
47804;SDS011;33568;45.286;9.900;2023-05-29T02:35:35;32.70;;;29.10;;
47804;SDS011;33568;45.286;9.900;2023-05-29T02:38:03;35.17;;;30.60;;
47804;SDS011;33568;45.286;9.900;2023-05-29T02:40:30;33.53;;;30.08;;
47804;SDS011;33568;45.286;9.900;2023-05-29T02:42:57;33.60;;;29.92;;
47804;SDS011;33568;45.286;9.900;2023-05-29T02:45:24;36.83;;;31.08;;
47804;SDS011;33568;45.286;9.900;2023-05-29T02:47:50;38.00;;;31.25;;
47804;SDS011;33568;45.286;9.900;2023-05-29T02:50:17;34.28;;;30.67;;
47804;SDS011;33568;45.286;9.900;2023-05-29T02:52:43;34.03;;;30.40;;
47804;SDS011;33568;45.286;9.900;2023-05-29T02:55:10;35.33;;;31.63;;
47804;SDS011;33568;45.286;9.900;2023-05-29T02:57:37;35.42;;;31.45;;
47804;SDS011;33568;45.286;9.900;2023-05-29T03:00:03;35.17;;;31.48;;
47804;SDS011;33568;45.286;9.900;2023-05-29T03:02:32;34.95;;;31.38;;
47804;SDS011;33568;45.286;9.900;2023-05-29T03:04:59;32.47;;;29.15;;
47804;SDS011;33568;45.286;9.900;2023-05-29T03:07:26;37.08;;;30.88;;
47804;SDS011;33568;45.286;9.900;2023-05-29T03:09:55;34.17;;;30.65;;
47804;SDS011;33568;45.286;9.900;2023-05-29T03:12:22;36.58;;;30.88;;
47804;SDS011;33568;45.286;9.900;2023-05-29T03:14:49;47.58;;;30.95;;
47804;SDS011;33568;45.286;9.900;2023-05-29T03:17:16;34.03;;;30.33;;
47804;SDS011;33568;45.286;9.900;2023-05-29T03:19:42;33.67;;;30.10;;
47804;SDS011;33568;45.286;9.900;2023-05-29T03:22:09;34.55;;;30.85;;
47804;SDS011;33568;45.286;9.900;2023-05-29T03:24:37;33.35;;;29.85;;
47804;SDS011;33568;45.286;9.900;2023-05-29T03:27:04;37.03;;;30.30;;
47804;SDS011;33568;45.286;9.900;2023-05-29T03:29:32;34.72;;;30.65;;
47804;SDS011;33568;45.286;9.900;2023-05-29T03:32:00;34.13;;;30.52;;
47804;SDS011;33568;45.286;9.900;2023-05-29T03:34:31;34.20;;;30.65;;
47804;SDS011;33568;45.286;9.900;2023-05-29T03:36:59;34.45;;;30.55;;
47804;SDS011;33568;45.286;9.900;2023-05-29T03:39:27;33.15;;;29.90;;
47804;SDS011;33568;45.286;9.900;2023-05-29T03:41:54;33.75;;;30.35;;
47804;SDS011;33568;45.286;9.900;2023-05-29T03:44:20;33.60;;;29.38;;
47804;SDS011;33568;45.286;9.900;2023-05-29T03:46:47;36.20;;;29.95;;
47804;SDS011;33568;45.286;9.900;2023-05-29T03:49:14;40.83;;;30.90;;
47804;SDS011;33568;45.286;9.900;2023-05-29T03:51:42;32.40;;;28.88;;
47804;SDS011;33568;45.286;9.900;2023-05-29T03:54:09;33.38;;;29.63;;
47804;SDS011;33568;45.286;9.900;2023-05-29T03:56:36;36.92;;;28.50;;
47804;SDS011;33568;45.286;9.900;2023-05-29T03:59:04;31.38;;;28.23;;
47804;SDS011;33568;45.286;9.900;2023-05-29T04:01:31;31.80;;;28.63;;
47804;SDS011;33568;45.286;9.900;2023-05-29T04:03:58;29.77;;;26.67;;
47804;SDS011;33568;45.286;9.900;2023-05-29T04:06:24;30.23;;;26.92;;
47804;SDS011;33568;45.286;9.900;2023-05-29T04:08:51;31.90;;;28.48;;
47804;SDS011;33568;45.286;9.900;2023-05-29T04:11:17;30.77;;;27.67;;
47804;SDS011;33568;45.286;9.900;2023-05-29T04:13:46;31.75;;;28.35;;
47804;SDS011;33568;45.286;9.900;2023-05-29T04:16:14;36.35;;;29.73;;
47804;SDS011;33568;45.286;9.900;2023-05-29T04:18:41;38.15;;;29.73;;
47804;SDS011;33568;45.286;9.900;2023-05-29T04:21:08;32.58;;;29.25;;
47804;SDS011;33568;45.286;9.900;2023-05-29T04:23:36;33.10;;;29.50;;
47804;SDS011;33568;45.286;9.900;2023-05-29T04:26:03;30.20;;;26.98;;
47804;SDS011;33568;45.286;9.900;2023-05-29T04:28:31;26.52;;;23.30;;
47804;SDS011;33568;45.286;9.900;2023-05-29T04:30:58;29.95;;;22.83;;
47804;SDS011;33568;45.286;9.900;2023-05-29T04:33:25;24.52;;;21.85;;
47804;SDS011;33568;45.286;9.900;2023-05-29T04:35:52;27.88;;;20.15;;
47804;SDS011;33568;45.286;9.900;2023-05-29T04:38:19;23.65;;;19.67;;
47804;SDS011;33568;45.286;9.900;2023-05-29T04:40:52;28.02;;;19.40;;
47804;SDS011;33568;45.286;9.900;2023-05-29T04:43:24;25.38;;;17.75;;
47804;SDS011;33568;45.286;9.900;2023-05-29T04:46:01;22.75;;;18.38;;
47804;SDS011;33568;45.286;9.900;2023-05-29T04:48:29;21.60;;;18.08;;
47804;SDS011;33568;45.286;9.900;2023-05-29T04:50:55;20.15;;;18.00;;
47804;SDS011;33568;45.286;9.900;2023-05-29T04:53:23;25.25;;;19.13;;
47804;SDS011;33568;45.286;9.900;2023-05-29T04:55:50;20.60;;;18.27;;
47804;SDS011;33568;45.286;9.900;2023-05-29T04:58:16;20.17;;;17.42;;
47804;SDS011;33568;45.286;9.900;2023-05-29T05:00:43;28.27;;;17.00;;
47804;SDS011;33568;45.286;9.900;2023-05-29T05:03:09;20.45;;;16.55;;
47804;SDS011;33568;45.286;9.900;2023-05-29T05:05:37;18.10;;;15.57;;
47804;SDS011;33568;45.286;9.900;2023-05-29T05:08:04;17.83;;;15.55;;
47804;SDS011;33568;45.286;9.900;2023-05-29T05:10:32;15.68;;;14.18;;
47804;SDS011;33568;45.286;9.900;2023-05-29T05:12:59;24.55;;;15.73;;
47804;SDS011;33568;45.286;9.900;2023-05-29T05:15:30;21.13;;;15.13;;
47804;SDS011;33568;45.286;9.900;2023-05-29T05:17:57;16.80;;;13.65;;
47804;SDS011;33568;45.286;9.900;2023-05-29T05:20:23;16.85;;;13.63;;
47804;SDS011;33568;45.286;9.900;2023-05-29T05:22:58;17.63;;;14.18;;
47804;SDS011;33568;45.286;9.900;2023-05-29T05:25:26;20.45;;;13.55;;
47804;SDS011;33568;45.286;9.900;2023-05-29T05:27:52;14.52;;;13.05;;
47804;SDS011;33568;45.286;9.900;2023-05-29T05:30:21;21.83;;;13.73;;
47804;SDS011;33568;45.286;9.900;2023-05-29T05:32:48;17.95;;;12.93;;
47804;SDS011;33568;45.286;9.900;2023-05-29T05:35:15;14.40;;;12.32;;
47804;SDS011;33568;45.286;9.900;2023-05-29T05:37:43;18.05;;;13.77;;
47804;SDS011;33568;45.286;9.900;2023-05-29T05:40:10;19.05;;;12.27;;
47804;SDS011;33568;45.286;9.900;2023-05-29T05:42:48;14.95;;;12.52;;
47804;SDS011;33568;45.286;9.900;2023-05-29T05:45:16;18.02;;;12.48;;
47804;SDS011;33568;45.286;9.900;2023-05-29T05:47:42;22.67;;;12.48;;
47804;SDS011;33568;45.286;9.900;2023-05-29T05:50:09;18.42;;;11.93;;
47804;SDS011;33568;45.286;9.900;2023-05-29T05:52:36;21.33;;;11.95;;
47804;SDS011;33568;45.286;9.900;2023-05-29T05:55:03;13.57;;;11.68;;
47804;SDS011;33568;45.286;9.900;2023-05-29T05:57:30;12.70;;;11.40;;
47804;SDS011;33568;45.286;9.900;2023-05-29T06:00:05;15.02;;;11.48;;
47804;SDS011;33568;45.286;9.900;2023-05-29T06:02:42;12.82;;;11.52;;
47804;SDS011;33568;45.286;9.900;2023-05-29T06:05:13;14.10;;;10.85;;
47804;SDS011;33568;45.286;9.900;2023-05-29T06:07:41;13.13;;;11.90;;
47804;SDS011;33568;45.286;9.900;2023-05-29T06:10:08;18.10;;;11.55;;
47804;SDS011;33568;45.286;9.900;2023-05-29T06:12:35;16.05;;;12.20;;
47804;SDS011;33568;45.286;9.900;2023-05-29T06:15:13;13.35;;;11.95;;
47804;SDS011;33568;45.286;9.900;2023-05-29T06:17:40;15.13;;;12.00;;
47804;SDS011;33568;45.286;9.900;2023-05-29T06:20:07;13.02;;;11.05;;
47804;SDS011;33568;45.286;9.900;2023-05-29T06:22:38;17.00;;;11.25;;
47804;SDS011;33568;45.286;9.900;2023-05-29T06:25:04;11.68;;;10.48;;
47804;SDS011;33568;45.286;9.900;2023-05-29T06:27:32;14.50;;;11.18;;
47804;SDS011;33568;45.286;9.900;2023-05-29T06:29:58;14.55;;;9.90;;
47804;SDS011;33568;45.286;9.900;2023-05-29T06:32:25;13.90;;;9.70;;
47804;SDS011;33568;45.286;9.900;2023-05-29T06:34:56;12.38;;;9.38;;
47804;SDS011;33568;45.286;9.900;2023-05-29T06:37:22;14.02;;;9.85;;
47804;SDS011;33568;45.286;9.900;2023-05-29T06:39:49;16.35;;;9.90;;
47804;SDS011;33568;45.286;9.900;2023-05-29T06:42:15;13.15;;;9.23;;
47804;SDS011;33568;45.286;9.900;2023-05-29T06:44:43;9.98;;;8.27;;
47804;SDS011;33568;45.286;9.900;2023-05-29T06:47:09;13.55;;;8.32;;
47804;SDS011;33568;45.286;9.900;2023-05-29T06:49:36;11.45;;;9.55;;
47804;SDS011;33568;45.286;9.900;2023-05-29T06:52:03;14.27;;;8.65;;
47804;SDS011;33568;45.286;9.900;2023-05-29T06:54:59;11.32;;;8.40;;
47804;SDS011;33568;45.286;9.900;2023-05-29T06:57:27;23.85;;;13.52;;
47804;SDS011;33568;45.286;9.900;2023-05-29T06:59:53;22.15;;;11.75;;
47804;SDS011;33568;45.286;9.900;2023-05-29T07:02:20;19.20;;;12.43;;
47804;SDS011;33568;45.286;9.900;2023-05-29T07:04:51;17.00;;;11.40;;
47804;SDS011;33568;45.286;9.900;2023-05-29T07:07:17;17.88;;;10.90;;
47804;SDS011;33568;45.286;9.900;2023-05-29T07:09:44;16.38;;;13.25;;
47804;SDS011;33568;45.286;9.900;2023-05-29T07:12:12;20.05;;;12.35;;
47804;SDS011;33568;45.286;9.900;2023-05-29T07:14:39;15.23;;;12.52;;
47804;SDS011;33568;45.286;9.900;2023-05-29T07:17:07;14.30;;;12.68;;
47804;SDS011;33568;45.286;9.900;2023-05-29T07:19:33;19.10;;;13.93;;
47804;SDS011;33568;45.286;9.900;2023-05-29T07:22:01;17.25;;;13.05;;
47804;SDS011;33568;45.286;9.900;2023-05-29T07:24:28;15.18;;;13.57;;
47804;SDS011;33568;45.286;9.900;2023-05-29T07:26:55;14.35;;;12.63;;
47804;SDS011;33568;45.286;9.900;2023-05-29T07:29:22;17.80;;;12.35;;
47804;SDS011;33568;45.286;9.900;2023-05-29T07:31:50;16.83;;;12.93;;
47804;SDS011;33568;45.286;9.900;2023-05-29T07:34:19;18.92;;;13.52;;
47804;SDS011;33568;45.286;9.900;2023-05-29T07:37:00;14.88;;;13.27;;
47804;SDS011;33568;45.286;9.900;2023-05-29T07:39:29;14.25;;;12.77;;
47804;SDS011;33568;45.286;9.900;2023-05-29T07:42:00;12.60;;;11.30;;
47804;SDS011;33568;45.286;9.900;2023-05-29T07:44:27;13.68;;;10.98;;
47804;SDS011;33568;45.286;9.900;2023-05-29T07:46:54;13.98;;;11.35;;
47804;SDS011;33568;45.286;9.900;2023-05-29T07:49:32;14.52;;;10.57;;
47804;SDS011;33568;45.286;9.900;2023-05-29T07:51:59;14.48;;;9.90;;
47804;SDS011;33568;45.286;9.900;2023-05-29T07:54:27;19.60;;;10.20;;
47804;SDS011;33568;45.286;9.900;2023-05-29T07:56:55;11.40;;;10.30;;
47804;SDS011;33568;45.286;9.900;2023-05-29T07:59:22;12.00;;;10.00;;
47804;SDS011;33568;45.286;9.900;2023-05-29T08:01:49;15.35;;;11.77;;
47804;SDS011;33568;45.286;9.900;2023-05-29T08:04:35;11.85;;;10.57;;
47804;SDS011;33568;45.286;9.900;2023-05-29T08:07:03;17.70;;;10.98;;
47804;SDS011;33568;45.286;9.900;2023-05-29T08:09:30;13.43;;;10.73;;
47804;SDS011;33568;45.286;9.900;2023-05-29T08:11:56;16.08;;;11.98;;
47804;SDS011;33568;45.286;9.900;2023-05-29T08:14:23;14.70;;;11.45;;
47804;SDS011;33568;45.286;9.900;2023-05-29T08:16:49;15.77;;;11.68;;
47804;SDS011;33568;45.286;9.900;2023-05-29T08:19:16;17.52;;;12.18;;
47804;SDS011;33568;45.286;9.900;2023-05-29T08:21:42;14.23;;;10.95;;
47804;SDS011;33568;45.286;9.900;2023-05-29T08:24:09;18.27;;;12.48;;
47804;SDS011;33568;45.286;9.900;2023-05-29T08:26:36;12.02;;;10.82;;
47804;SDS011;33568;45.286;9.900;2023-05-29T08:29:02;14.27;;;10.85;;
47804;SDS011;33568;45.286;9.900;2023-05-29T08:31:29;13.00;;;11.63;;
47804;SDS011;33568;45.286;9.900;2023-05-29T08:33:56;13.88;;;11.60;;
47804;SDS011;33568;45.286;9.900;2023-05-29T08:36:24;14.10;;;11.45;;
47804;SDS011;33568;45.286;9.900;2023-05-29T08:38:51;12.75;;;10.65;;
47804;SDS011;33568;45.286;9.900;2023-05-29T08:41:27;13.77;;;11.45;;
47804;SDS011;33568;45.286;9.900;2023-05-29T08:44:00;15.15;;;11.27;;
47804;SDS011;33568;45.286;9.900;2023-05-29T08:46:30;14.52;;;12.15;;
47804;SDS011;33568;45.286;9.900;2023-05-29T08:49:00;18.50;;;11.38;;
47804;SDS011;33568;45.286;9.900;2023-05-29T08:51:32;16.42;;;11.40;;
47804;SDS011;33568;45.286;9.900;2023-05-29T08:54:03;17.03;;;10.60;;
47804;SDS011;33568;45.286;9.900;2023-05-29T08:56:30;13.02;;;11.02;;
47804;SDS011;33568;45.286;9.900;2023-05-29T08:58:57;12.07;;;10.52;;
47804;SDS011;33568;45.286;9.900;2023-05-29T09:01:24;11.93;;;10.70;;
47804;SDS011;33568;45.286;9.900;2023-05-29T09:03:51;16.65;;;11.85;;
47804;SDS011;33568;45.286;9.900;2023-05-29T09:06:17;14.32;;;11.32;;
47804;SDS011;33568;45.286;9.900;2023-05-29T09:08:44;16.77;;;11.88;;
47804;SDS011;33568;45.286;9.900;2023-05-29T09:11:12;16.50;;;11.43;;
47804;SDS011;33568;45.286;9.900;2023-05-29T09:13:38;14.60;;;12.20;;
47804;SDS011;33568;45.286;9.900;2023-05-29T09:16:05;16.33;;;11.07;;
47804;SDS011;33568;45.286;9.900;2023-05-29T09:18:33;13.73;;;11.23;;
47804;SDS011;33568;45.286;9.900;2023-05-29T09:20:59;12.93;;;11.63;;
47804;SDS011;33568;45.286;9.900;2023-05-29T09:23:32;16.65;;;11.90;;
47804;SDS011;33568;45.286;9.900;2023-05-29T09:25:58;12.93;;;11.35;;
47804;SDS011;33568;45.286;9.900;2023-05-29T09:28:29;12.27;;;10.77;;
47804;SDS011;33568;45.286;9.900;2023-05-29T09:30:56;12.60;;;11.30;;
47804;SDS011;33568;45.286;9.900;2023-05-29T09:33:24;14.55;;;10.98;;
47804;SDS011;33568;45.286;9.900;2023-05-29T09:35:52;13.55;;;11.45;;
47804;SDS011;33568;45.286;9.900;2023-05-29T09:38:19;12.40;;;10.98;;
47804;SDS011;33568;45.286;9.900;2023-05-29T09:40:45;14.25;;;10.70;;
47804;SDS011;33568;45.286;9.900;2023-05-29T09:43:16;14.43;;;12.35;;
47804;SDS011;33568;45.286;9.900;2023-05-29T09:45:44;13.82;;;12.25;;
47804;SDS011;33568;45.286;9.900;2023-05-29T09:48:16;17.02;;;13.15;;
47804;SDS011;33568;45.286;9.900;2023-05-29T09:50:44;22.42;;;12.85;;
47804;SDS011;33568;45.286;9.900;2023-05-29T09:53:17;26.52;;;13.55;;
47804;SDS011;33568;45.286;9.900;2023-05-29T09:55:48;16.35;;;12.40;;
47804;SDS011;33568;45.286;9.900;2023-05-29T09:58:19;14.85;;;11.40;;
47804;SDS011;33568;45.286;9.900;2023-05-29T10:00:47;15.05;;;12.35;;
47804;SDS011;33568;45.286;9.900;2023-05-29T10:03:14;13.27;;;11.88;;
47804;SDS011;33568;45.286;9.900;2023-05-29T10:05:42;15.95;;;11.95;;
47804;SDS011;33568;45.286;9.900;2023-05-29T10:08:13;14.70;;;13.20;;
47804;SDS011;33568;45.286;9.900;2023-05-29T10:10:40;18.48;;;14.05;;
47804;SDS011;33568;45.286;9.900;2023-05-29T10:13:13;18.52;;;12.27;;
47804;SDS011;33568;45.286;9.900;2023-05-29T10:15:44;17.38;;;11.90;;
47804;SDS011;33568;45.286;9.900;2023-05-29T10:18:55;17.85;;;12.32;;
47804;SDS011;33568;45.286;9.900;2023-05-29T10:21:04;15.55;;;12.60;;
47804;SDS011;33568;45.286;9.900;2023-05-29T10:23:33;16.52;;;12.43;;
47804;SDS011;33568;45.286;9.900;2023-05-29T10:26:05;13.45;;;12.18;;
47804;SDS011;33568;45.286;9.900;2023-05-29T10:28:39;18.88;;;11.85;;
47804;SDS011;33568;45.286;9.900;2023-05-29T10:31:09;14.20;;;12.63;;
47804;SDS011;33568;45.286;9.900;2023-05-29T10:36:21;16.20;;;13.65;;
47804;SDS011;33568;45.286;9.900;2023-05-29T10:38:52;17.35;;;12.82;;
47804;SDS011;33568;45.286;9.900;2023-05-29T10:43:54;15.23;;;12.35;;
47804;SDS011;33568;45.286;9.900;2023-05-29T10:47:00;15.82;;;12.13;;
47804;SDS011;33568;45.286;9.900;2023-05-29T10:49:16;14.18;;;11.77;;
47804;SDS011;33568;45.286;9.900;2023-05-29T10:51:43;14.18;;;11.55;;
47804;SDS011;33568;45.286;9.900;2023-05-29T10:54:10;12.32;;;11.02;;
47804;SDS011;33568;45.286;9.900;2023-05-29T10:56:37;12.68;;;11.23;;
47804;SDS011;33568;45.286;9.900;2023-05-29T10:59:04;13.55;;;11.75;;
47804;SDS011;33568;45.286;9.900;2023-05-29T11:01:30;14.32;;;12.15;;
47804;SDS011;33568;45.286;9.900;2023-05-29T11:06:58;13.77;;;11.68;;
47804;SDS011;33568;45.286;9.900;2023-05-29T11:09:35;13.98;;;11.32;;
47804;SDS011;33568;45.286;9.900;2023-05-29T11:15:05;13.00;;;11.32;;
47804;SDS011;33568;45.286;9.900;2023-05-29T11:20:06;16.95;;;12.63;;
47804;SDS011;33568;45.286;9.900;2023-05-29T11:25:11;17.88;;;10.75;;
47804;SDS011;33568;45.286;9.900;2023-05-29T11:27:40;15.40;;;12.13;;
47804;SDS011;33568;45.286;9.900;2023-05-29T11:30:09;13.40;;;11.05;;
47804;SDS011;33568;45.286;9.900;2023-05-29T11:32:36;14.05;;;12.40;;
47804;SDS011;33568;45.286;9.900;2023-05-29T11:35:09;15.50;;;11.00;;
47804;SDS011;33568;45.286;9.900;2023-05-29T11:37:39;12.77;;;11.40;;
47804;SDS011;33568;45.286;9.900;2023-05-29T11:40:11;16.27;;;11.68;;
47804;SDS011;33568;45.286;9.900;2023-05-29T11:42:42;14.75;;;11.82;;
47804;SDS011;33568;45.286;9.900;2023-05-29T11:45:13;13.20;;;11.05;;
47804;SDS011;33568;45.286;9.900;2023-05-29T11:50:27;12.82;;;10.65;;
47804;SDS011;33568;45.286;9.900;2023-05-29T11:52:56;12.35;;;10.15;;
47804;SDS011;33568;45.286;9.900;2023-05-29T11:55:24;13.23;;;10.27;;
47804;SDS011;33568;45.286;9.900;2023-05-29T11:57:55;17.60;;;11.70;;
47804;SDS011;33568;45.286;9.900;2023-05-29T12:00:24;15.38;;;12.07;;
47804;SDS011;33568;45.286;9.900;2023-05-29T12:02:51;14.88;;;11.73;;
47804;SDS011;33568;45.286;9.900;2023-05-29T12:05:18;14.10;;;11.30;;
47804;SDS011;33568;45.286;9.900;2023-05-29T12:07:51;14.20;;;11.70;;
47804;SDS011;33568;45.286;9.900;2023-05-29T12:10:20;11.45;;;10.25;;
47804;SDS011;33568;45.286;9.900;2023-05-29T12:12:48;13.43;;;11.00;;
47804;SDS011;33568;45.286;9.900;2023-05-29T12:15:19;13.73;;;10.55;;
47804;SDS011;33568;45.286;9.900;2023-05-29T12:17:47;12.27;;;10.85;;
47804;SDS011;33568;45.286;9.900;2023-05-29T12:20:15;12.50;;;11.18;;
47804;SDS011;33568;45.286;9.900;2023-05-29T12:22:43;14.45;;;10.35;;
47804;SDS011;33568;45.286;9.900;2023-05-29T12:25:11;12.95;;;10.65;;
47804;SDS011;33568;45.286;9.900;2023-05-29T12:27:39;14.23;;;10.48;;
47804;SDS011;33568;45.286;9.900;2023-05-29T12:32:41;13.48;;;12.10;;
47804;SDS011;33568;45.286;9.900;2023-05-29T12:35:09;13.93;;;10.88;;
47804;SDS011;33568;45.286;9.900;2023-05-29T12:37:41;12.45;;;9.27;;
47804;SDS011;33568;45.286;9.900;2023-05-29T12:42:53;14.00;;;10.00;;
47804;SDS011;33568;45.286;9.900;2023-05-29T12:45:24;13.60;;;11.15;;
47804;SDS011;33568;45.286;9.900;2023-05-29T12:47:53;19.00;;;10.77;;
47804;SDS011;33568;45.286;9.900;2023-05-29T12:50:25;14.63;;;10.15;;
47804;SDS011;33568;45.286;9.900;2023-05-29T12:55:27;18.65;;;10.27;;
47804;SDS011;33568;45.286;9.900;2023-05-29T12:57:54;11.35;;;8.95;;
47804;SDS011;33568;45.286;9.900;2023-05-29T13:00:22;10.82;;;9.43;;
47804;SDS011;33568;45.286;9.900;2023-05-29T13:02:49;11.05;;;9.95;;
47804;SDS011;33568;45.286;9.900;2023-05-29T13:05:16;11.85;;;9.50;;
47804;SDS011;33568;45.286;9.900;2023-05-29T13:07:45;14.85;;;10.10;;
47804;SDS011;33568;45.286;9.900;2023-05-29T13:10:13;17.33;;;9.73;;
47804;SDS011;33568;45.286;9.900;2023-05-29T13:12:40;15.82;;;10.18;;
47804;SDS011;33568;45.286;9.900;2023-05-29T13:15:07;15.23;;;11.10;;
47804;SDS011;33568;45.286;9.900;2023-05-29T13:17:35;14.65;;;10.27;;
47804;SDS011;33568;45.286;9.900;2023-05-29T13:20:02;14.93;;;9.93;;
47804;SDS011;33568;45.286;9.900;2023-05-29T13:22:33;14.43;;;10.10;;
47804;SDS011;33568;45.286;9.900;2023-05-29T13:25:00;11.85;;;10.55;;
47804;SDS011;33568;45.286;9.900;2023-05-29T13:27:27;10.63;;;9.40;;
47804;SDS011;33568;45.286;9.900;2023-05-29T13:29:54;10.55;;;9.15;;
47804;SDS011;33568;45.286;9.900;2023-05-29T13:32:20;12.95;;;9.20;;
47804;SDS011;33568;45.286;9.900;2023-05-29T13:34:47;9.75;;;8.82;;
47804;SDS011;33568;45.286;9.900;2023-05-29T13:37:13;16.05;;;10.00;;
47804;SDS011;33568;45.286;9.900;2023-05-29T13:39:40;10.80;;;8.55;;
47804;SDS011;33568;45.286;9.900;2023-05-29T13:42:07;12.30;;;9.60;;
47804;SDS011;33568;45.286;9.900;2023-05-29T13:44:33;14.55;;;9.35;;
47804;SDS011;33568;45.286;9.900;2023-05-29T13:47:00;11.82;;;9.52;;
47804;SDS011;33568;45.286;9.900;2023-05-29T13:49:27;13.20;;;9.80;;
47804;SDS011;33568;45.286;9.900;2023-05-29T13:51:53;15.07;;;9.38;;
47804;SDS011;33568;45.286;9.900;2023-05-29T13:54:20;11.80;;;8.98;;
47804;SDS011;33568;45.286;9.900;2023-05-29T13:56:48;21.10;;;9.30;;
47804;SDS011;33568;45.286;9.900;2023-05-29T13:59:14;15.68;;;10.30;;
47804;SDS011;33568;45.286;9.900;2023-05-29T14:01:41;13.80;;;9.82;;
47804;SDS011;33568;45.286;9.900;2023-05-29T14:04:08;11.05;;;9.25;;
47804;SDS011;33568;45.286;9.900;2023-05-29T14:06:34;14.18;;;10.10;;
47804;SDS011;33568;45.286;9.900;2023-05-29T14:09:02;13.90;;;10.43;;
47804;SDS011;33568;45.286;9.900;2023-05-29T14:11:29;12.43;;;9.43;;
47804;SDS011;33568;45.286;9.900;2023-05-29T14:13:56;15.50;;;10.10;;
47804;SDS011;33568;45.286;9.900;2023-05-29T14:16:22;10.38;;;9.02;;
47804;SDS011;33568;45.286;9.900;2023-05-29T14:18:49;15.65;;;10.63;;
47804;SDS011;33568;45.286;9.900;2023-05-29T14:21:15;14.27;;;10.77;;
47804;SDS011;33568;45.286;9.900;2023-05-29T14:23:42;21.40;;;10.45;;
47804;SDS011;33568;45.286;9.900;2023-05-29T14:26:08;13.25;;;10.02;;
47804;SDS011;33568;45.286;9.900;2023-05-29T14:28:35;20.83;;;10.45;;
47804;SDS011;33568;45.286;9.900;2023-05-29T14:31:02;16.95;;;10.82;;
47804;SDS011;33568;45.286;9.900;2023-05-29T14:33:29;12.55;;;10.23;;
47804;SDS011;33568;45.286;9.900;2023-05-29T14:35:56;14.30;;;11.13;;
47804;SDS011;33568;45.286;9.900;2023-05-29T14:38:23;10.82;;;9.00;;
47804;SDS011;33568;45.286;9.900;2023-05-29T14:40:50;16.63;;;10.40;;
47804;SDS011;33568;45.286;9.900;2023-05-29T14:43:17;11.05;;;9.18;;
47804;SDS011;33568;45.286;9.900;2023-05-29T14:45:44;14.20;;;9.52;;
47804;SDS011;33568;45.286;9.900;2023-05-29T14:48:10;21.98;;;8.57;;
47804;SDS011;33568;45.286;9.900;2023-05-29T14:50:37;17.95;;;10.10;;
47804;SDS011;33568;45.286;9.900;2023-05-29T14:53:03;9.75;;;8.70;;
47804;SDS011;33568;45.286;9.900;2023-05-29T14:55:30;13.35;;;8.95;;
47804;SDS011;33568;45.286;9.900;2023-05-29T14:58:03;11.05;;;8.98;;
47804;SDS011;33568;45.286;9.900;2023-05-29T15:00:30;13.27;;;8.70;;
47804;SDS011;33568;45.286;9.900;2023-05-29T15:02:57;12.23;;;8.73;;
47804;SDS011;33568;45.286;9.900;2023-05-29T15:05:25;13.10;;;8.65;;
47804;SDS011;33568;45.286;9.900;2023-05-29T15:07:52;17.02;;;9.15;;
47804;SDS011;33568;45.286;9.900;2023-05-29T15:10:20;18.13;;;8.48;;
47804;SDS011;33568;45.286;9.900;2023-05-29T15:12:47;10.25;;;8.05;;